AFR416 LFPG-SBFZ
Flight info
| Callsign | AFR416 |
|---|---|
| Flight time | N/A |
| Altitude | 35000 |
| Route | ERIXU6L ERIXU DCT OSMOB DCT ARVID/N0488F370 T424 PPN N10 NOLSA N857 KORNO UN857 TERTO N857 LZR N871 GDV N873 ODEGI/N0489F380 N873 IPERA UW43 SVT/N0492F390 UW46 KEPAS/N0495F380 UN741 MERUD/N0488F400 UN741 ROLID UZ18 EKOGA UM791 ARMIR UZ60 DOTKU DOTKU1A |
| Aircraft | B789/H-SDE1E2E3FGHIJ2J3J4J5M1RWXY/LB1D1 |
Departure
| Time | N/A |
|---|---|
| Airport | Charles de Gaulle International Airport (LFPG) |
Arrival
| Time | 2026-04-28 15:52 |
|---|---|
| Airport | Pinto Martins International Airport (SBFZ) |
| Time | Latitude | Longitude | Altitude | Speed | Heading |
|---|---|---|---|---|---|
| 2026-04-28 15:41 | -4.16864 | -38.68505 | 17441 ft | 363 kts | 287° |
| 2026-04-28 15:42 | -4.16154 | -38.70926 | 16916 ft | 359 kts | 286° |
| 2026-04-28 15:42 | -4.15473 | -38.73311 | 16533 ft | 351 kts | 286° |
| 2026-04-28 15:42 | -4.14773 | -38.75710 | 15203 ft | 370 kts | 286° |
| 2026-04-28 15:42 | -4.14016 | -38.78261 | 13636 ft | 397 kts | 286° |
| 2026-04-28 15:43 | -4.13167 | -38.80903 | 12841 ft | 394 kts | 292° |
| 2026-04-28 15:43 | -4.11755 | -38.83217 | 12081 ft | 389 kts | 310° |
| 2026-04-28 15:43 | -4.09754 | -38.85004 | 11346 ft | 383 kts | 328° |
| 2026-04-28 15:43 | -4.07363 | -38.86100 | 10907 ft | 368 kts | 345° |
| 2026-04-28 15:44 | -4.04907 | -38.86515 | 10314 ft | 356 kts | 1° |
| 2026-04-28 15:44 | -4.02466 | -38.86235 | 9608 ft | 351 kts | 16° |
| 2026-04-28 15:44 | -4.00161 | -38.85479 | 8865 ft | 345 kts | 23° |
| 2026-04-28 15:44 | -3.98145 | -38.84234 | 8264 ft | 340 kts | 39° |
| 2026-04-28 15:45 | -3.96224 | -38.82847 | 7680 ft | 340 kts | 36° |
| 2026-04-28 15:45 | -3.94308 | -38.81519 | 7267 ft | 328 kts | 36° |
| 2026-04-28 15:45 | -3.92483 | -38.80233 | 6968 ft | 314 kts | 37° |
| 2026-04-28 15:45 | -3.91323 | -38.79402 | 6757 ft | 306 kts | 37° |
| 2026-04-28 15:46 | -3.89060 | -38.77782 | 6334 ft | 298 kts | 37° |
| 2026-04-28 15:46 | -3.87372 | -38.76583 | 6001 ft | 296 kts | 37° |
| 2026-04-28 15:46 | -3.85695 | -38.75394 | 5682 ft | 292 kts | 37° |
| 2026-04-28 15:46 | -3.84592 | -38.74610 | 5459 ft | 285 kts | 37° |
| 2026-04-28 15:47 | -3.83004 | -38.73486 | 5118 ft | 276 kts | 36° |
| 2026-04-28 15:47 | -3.81282 | -38.72744 | 4797 ft | 275 kts | 14° |
| 2026-04-28 15:47 | -3.79436 | -38.72280 | 4462 ft | 271 kts | 18° |
| 2026-04-28 15:47 | -3.77656 | -38.71747 | 4126 ft | 263 kts | 18° |
| 2026-04-28 15:48 | -3.75922 | -38.71203 | 3793 ft | 260 kts | 26° |
| 2026-04-28 15:48 | -3.74541 | -38.70105 | 3473 ft | 252 kts | 54° |
| 2026-04-28 15:48 | -3.73843 | -38.68588 | 3190 ft | 235 kts | 81° |
| 2026-04-28 15:48 | -3.73932 | -38.67020 | 3018 ft | 217 kts | 102° |
| 2026-04-28 15:49 | -3.74267 | -38.65628 | 3009 ft | 193 kts | 106° |
| 2026-04-28 15:49 | -3.74645 | -38.64295 | 2496 ft | 198 kts | 108° |
| 2026-04-28 15:49 | -3.75024 | -38.63022 | 2098 ft | 186 kts | 107° |
| 2026-04-28 15:49 | -3.75347 | -38.61821 | 1781 ft | 173 kts | 105° |
| 2026-04-28 15:50 | -3.75636 | -38.60670 | 1380 ft | 166 kts | 106° |
| 2026-04-28 15:50 | -3.75929 | -38.59579 | 1043 ft | 156 kts | 108° |
| 2026-04-28 15:50 | -3.76202 | -38.58582 | 885 ft | 141 kts | 107° |
| 2026-04-28 15:50 | -3.76408 | -38.57824 | 777 ft | 143 kts | 108° |
| 2026-04-28 15:51 | -3.76615 | -38.57078 | 647 ft | 137 kts | 106° |
| 2026-04-28 15:51 | -3.76866 | -38.56121 | 468 ft | 143 kts | 106° |
| 2026-04-28 15:51 | -3.77115 | -38.55185 | 269 ft | 137 kts | 105° |
| 2026-04-28 15:52 | -3.77365 | -38.54256 | 97 ft | 136 kts | 105° |
| 2026-04-28 15:52 | -3.77322 | -38.54409 | 152 ft | 436 kts | 105° |
| 2026-04-28 15:52 | -3.76655 | -38.56907 | 587 ft | 0 kts | 105° |
| 2026-04-28 15:52 | -3.76470 | -38.57712 | 784 ft | 0 kts | 105° |
| 2026-04-28 15:53 | -3.76463 | -38.57604 | 830 ft | 1 kts | 107° |
| 2026-04-28 15:53 | -3.76452 | -38.57739 | 1054 ft | 0 kts | 112° |
| 2026-04-28 15:53 | -3.76160 | -38.58657 | 1551 ft | 0 kts | 144° |
| 2026-04-28 15:54 | -3.76189 | -38.58365 | 2570 ft | 131 kts | 95° |
| 2026-04-28 15:54 | -3.76569 | -38.57207 | 1059 ft | 181 kts | 111° |